sensor_id;sensor_type;location;lat;lon;timestamp;P1;durP1;ratioP1;P2;durP2;ratioP2
162;SDS011;3946;48.958;8.284;2023-02-26T01:26:09;9.15;;;4.18;;
162;SDS011;3946;48.958;8.284;2023-02-26T01:28:59;2.03;;;1.10;;
162;SDS011;3946;48.958;8.284;2023-02-26T01:31:47;1.50;;;0.90;;
162;SDS011;3946;48.958;8.284;2023-02-26T01:34:41;1.50;;;0.90;;
162;SDS011;3946;48.958;8.284;2023-02-26T01:37:32;1.50;;;0.90;;
162;SDS011;3946;48.958;8.284;2023-02-26T01:43:46;1.60;;;1.10;;
162;SDS011;3946;48.958;8.284;2023-02-26T01:46:45;1.40;;;0.90;;
162;SDS011;3946;48.958;8.284;2023-02-26T01:49:45;1.40;;;0.90;;
162;SDS011;3946;48.958;8.284;2023-02-26T01:56:05;1.40;;;0.90;;
162;SDS011;3946;48.958;8.284;2023-02-26T01:58:55;1.40;;;0.90;;
162;SDS011;3946;48.958;8.284;2023-02-26T02:01:41;1.40;;;0.90;;
162;SDS011;3946;48.958;8.284;2023-02-26T02:04:27;1.40;;;0.90;;
162;SDS011;3946;48.958;8.284;2023-02-26T02:07:19;1.40;;;0.90;;
162;SDS011;3946;48.958;8.284;2023-02-26T02:10:05;1.40;;;0.90;;
162;SDS011;3946;48.958;8.284;2023-02-26T02:12:53;1.40;;;0.90;;
162;SDS011;3946;48.958;8.284;2023-02-26T02:15:48;1.40;;;0.90;;
162;SDS011;3946;48.958;8.284;2023-02-26T02:18:42;1.40;;;0.80;;
162;SDS011;3946;48.958;8.284;2023-02-26T02:21:40;1.40;;;0.90;;
162;SDS011;3946;48.958;8.284;2023-02-26T02:24:37;1.40;;;0.90;;
162;SDS011;3946;48.958;8.284;2023-02-26T02:27:37;1.40;;;0.90;;
162;SDS011;3946;48.958;8.284;2023-02-26T02:30:32;1.80;;;1.03;;
162;SDS011;3946;48.958;8.284;2023-02-26T02:33:26;1.40;;;0.90;;
162;SDS011;3946;48.958;8.284;2023-02-26T02:36:18;1.40;;;0.90;;
162;SDS011;3946;48.958;8.284;2023-02-26T02:39:07;1.40;;;0.90;;
162;SDS011;3946;48.958;8.284;2023-02-26T02:41:55;1.40;;;0.90;;
162;SDS011;3946;48.958;8.284;2023-02-26T02:44:45;1.50;;;1.00;;
162;SDS011;3946;48.958;8.284;2023-02-26T02:47:36;1.40;;;0.90;;
162;SDS011;3946;48.958;8.284;2023-02-26T02:50:27;1.70;;;1.30;;
162;SDS011;3946;48.958;8.284;2023-02-26T02:53:19;1.40;;;0.90;;
162;SDS011;3946;48.958;8.284;2023-02-26T02:56:09;1.40;;;0.90;;
162;SDS011;3946;48.958;8.284;2023-02-26T02:58:58;1.40;;;0.80;;
162;SDS011;3946;48.958;8.284;2023-02-26T03:01:49;1.40;;;0.90;;
162;SDS011;3946;48.958;8.284;2023-02-26T03:04:48;1.40;;;0.90;;
162;SDS011;3946;48.958;8.284;2023-02-26T03:07:37;1.40;;;0.90;;
162;SDS011;3946;48.958;8.284;2023-02-26T03:10:27;1.40;;;0.90;;
162;SDS011;3946;48.958;8.284;2023-02-26T03:13:13;1.40;;;0.90;;
162;SDS011;3946;48.958;8.284;2023-02-26T03:16:03;1.40;;;0.90;;
162;SDS011;3946;48.958;8.284;2023-02-26T03:19:03;1.40;;;0.80;;
162;SDS011;3946;48.958;8.284;2023-02-26T03:22:00;2.70;;;1.47;;
162;SDS011;3946;48.958;8.284;2023-02-26T03:25:26;2.80;;;1.50;;
162;SDS011;3946;48.958;8.284;2023-02-26T03:28:18;1.40;;;0.90;;
162;SDS011;3946;48.958;8.284;2023-02-26T03:31:14;1.40;;;0.90;;
162;SDS011;3946;48.958;8.284;2023-02-26T03:34:04;1.40;;;0.90;;
162;SDS011;3946;48.958;8.284;2023-02-26T03:36:56;1.40;;;0.90;;
162;SDS011;3946;48.958;8.284;2023-02-26T03:39:48;1.40;;;0.90;;
162;SDS011;3946;48.958;8.284;2023-02-26T03:42:40;1.40;;;0.90;;
162;SDS011;3946;48.958;8.284;2023-02-26T03:45:30;1.40;;;0.90;;
162;SDS011;3946;48.958;8.284;2023-02-26T03:48:19;1.40;;;0.90;;
162;SDS011;3946;48.958;8.284;2023-02-26T03:51:11;1.40;;;0.90;;
162;SDS011;3946;48.958;8.284;2023-02-26T03:54:08;1.40;;;0.90;;
162;SDS011;3946;48.958;8.284;2023-02-26T03:57:17;1.40;;;0.90;;
162;SDS011;3946;48.958;8.284;2023-02-26T04:00:21;1.40;;;0.90;;
162;SDS011;3946;48.958;8.284;2023-02-26T04:03:07;1.40;;;0.90;;
162;SDS011;3946;48.958;8.284;2023-02-26T04:05:56;1.40;;;0.90;;
162;SDS011;3946;48.958;8.284;2023-02-26T04:08:44;1.40;;;0.90;;
162;SDS011;3946;48.958;8.284;2023-02-26T04:11:30;1.43;;;0.90;;
162;SDS011;3946;48.958;8.284;2023-02-26T04:14:16;5.33;;;2.60;;
162;SDS011;3946;48.958;8.284;2023-02-26T04:17:03;1.40;;;0.90;;
162;SDS011;3946;48.958;8.284;2023-02-26T04:19:50;1.60;;;1.03;;
162;SDS011;3946;48.958;8.284;2023-02-26T04:22:36;1.50;;;1.00;;
162;SDS011;3946;48.958;8.284;2023-02-26T04:25:21;1.40;;;0.97;;
162;SDS011;3946;48.958;8.284;2023-02-26T04:28:09;1.50;;;1.00;;
162;SDS011;3946;48.958;8.284;2023-02-26T04:30:54;1.40;;;0.90;;
162;SDS011;3946;48.958;8.284;2023-02-26T04:33:41;1.40;;;0.90;;
162;SDS011;3946;48.958;8.284;2023-02-26T04:36:27;1.40;;;0.90;;
162;SDS011;3946;48.958;8.284;2023-02-26T04:39:12;1.40;;;0.90;;
162;SDS011;3946;48.958;8.284;2023-02-26T04:41:58;1.50;;;1.00;;
162;SDS011;3946;48.958;8.284;2023-02-26T04:44:43;1.40;;;0.90;;
162;SDS011;3946;48.958;8.284;2023-02-26T04:47:30;1.40;;;0.90;;
162;SDS011;3946;48.958;8.284;2023-02-26T04:50:17;1.40;;;0.90;;
162;SDS011;3946;48.958;8.284;2023-02-26T04:53:04;1.40;;;0.90;;
162;SDS011;3946;48.958;8.284;2023-02-26T04:55:51;1.40;;;0.90;;
162;SDS011;3946;48.958;8.284;2023-02-26T04:58:36;1.40;;;1.00;;
162;SDS011;3946;48.958;8.284;2023-02-26T05:01:26;1.40;;;0.90;;
162;SDS011;3946;48.958;8.284;2023-02-26T05:04:11;1.40;;;0.90;;
162;SDS011;3946;48.958;8.284;2023-02-26T05:07:00;1.70;;;1.37;;
162;SDS011;3946;48.958;8.284;2023-02-26T05:09:45;4.27;;;1.60;;
162;SDS011;3946;48.958;8.284;2023-02-26T05:12:30;2.67;;;1.40;;
162;SDS011;3946;48.958;8.284;2023-02-26T05:15:16;3.30;;;2.83;;
162;SDS011;3946;48.958;8.284;2023-02-26T05:18:02;1.40;;;0.90;;
162;SDS011;3946;48.958;8.284;2023-02-26T05:20:50;2.07;;;1.87;;
162;SDS011;3946;48.958;8.284;2023-02-26T05:23:38;1.40;;;0.90;;
162;SDS011;3946;48.958;8.284;2023-02-26T05:26:23;1.40;;;0.90;;
162;SDS011;3946;48.958;8.284;2023-02-26T05:29:08;1.40;;;1.00;;
162;SDS011;3946;48.958;8.284;2023-02-26T05:31:53;29.87;;;8.00;;
162;SDS011;3946;48.958;8.284;2023-02-26T05:34:39;1.40;;;0.90;;
162;SDS011;3946;48.958;8.284;2023-02-26T05:37:25;1.40;;;0.90;;
162;SDS011;3946;48.958;8.284;2023-02-26T05:40:12;13.70;;;5.30;;
162;SDS011;3946;48.958;8.284;2023-02-26T05:42:57;1.40;;;0.90;;
162;SDS011;3946;48.958;8.284;2023-02-26T05:45:43;1.40;;;0.90;;
162;SDS011;3946;48.958;8.284;2023-02-26T05:48:28;1.40;;;0.97;;
162;SDS011;3946;48.958;8.284;2023-02-26T05:51:13;1.80;;;1.40;;
162;SDS011;3946;48.958;8.284;2023-02-26T05:53:58;1.40;;;0.80;;
162;SDS011;3946;48.958;8.284;2023-02-26T05:56:45;2.17;;;1.17;;
162;SDS011;3946;48.958;8.284;2023-02-26T05:59:30;1.47;;;0.90;;
162;SDS011;3946;48.958;8.284;2023-02-26T06:02:16;1.40;;;1.10;;
162;SDS011;3946;48.958;8.284;2023-02-26T06:05:01;16.37;;;5.43;;
162;SDS011;3946;48.958;8.284;2023-02-26T06:07:47;14.37;;;5.93;;
162;SDS011;3946;48.958;8.284;2023-02-26T06:10:32;17.03;;;5.60;;
162;SDS011;3946;48.958;8.284;2023-02-26T06:13:19;14.67;;;5.93;;
162;SDS011;3946;48.958;8.284;2023-02-26T06:16:05;12.47;;;3.80;;
162;SDS011;3946;48.958;8.284;2023-02-26T06:18:50;14.87;;;6.03;;
162;SDS011;3946;48.958;8.284;2023-02-26T06:21:35;19.10;;;5.40;;
162;SDS011;3946;48.958;8.284;2023-02-26T06:24:21;24.10;;;7.20;;
162;SDS011;3946;48.958;8.284;2023-02-26T06:27:06;25.23;;;8.70;;
162;SDS011;3946;48.958;8.284;2023-02-26T06:29:53;27.07;;;7.63;;
162;SDS011;3946;48.958;8.284;2023-02-26T06:32:39;22.07;;;7.77;;
162;SDS011;3946;48.958;8.284;2023-02-26T06:35:24;27.03;;;9.00;;
162;SDS011;3946;48.958;8.284;2023-02-26T06:38:11;21.87;;;7.70;;
162;SDS011;3946;48.958;8.284;2023-02-26T06:40:56;24.57;;;8.07;;
162;SDS011;3946;48.958;8.284;2023-02-26T06:43:41;24.30;;;7.10;;
162;SDS011;3946;48.958;8.284;2023-02-26T06:46:28;22.70;;;6.97;;
162;SDS011;3946;48.958;8.284;2023-02-26T06:49:13;24.30;;;7.37;;
162;SDS011;3946;48.958;8.284;2023-02-26T06:51:59;25.73;;;6.60;;
162;SDS011;3946;48.958;8.284;2023-02-26T06:54:44;19.60;;;7.50;;
162;SDS011;3946;48.958;8.284;2023-02-26T06:57:30;19.27;;;7.33;;
162;SDS011;3946;48.958;8.284;2023-02-26T07:00:15;29.90;;;8.10;;
162;SDS011;3946;48.958;8.284;2023-02-26T07:03:02;17.63;;;7.10;;
162;SDS011;3946;48.958;8.284;2023-02-26T07:05:47;25.63;;;7.63;;
162;SDS011;3946;48.958;8.284;2023-02-26T07:08:33;39.90;;;12.97;;
162;SDS011;3946;48.958;8.284;2023-02-26T07:11:18;24.73;;;7.93;;
162;SDS011;3946;48.958;8.284;2023-02-26T07:14:03;22.70;;;8.20;;
162;SDS011;3946;48.958;8.284;2023-02-26T07:16:49;24.07;;;7.43;;
162;SDS011;3946;48.958;8.284;2023-02-26T07:19:36;22.20;;;8.33;;
162;SDS011;3946;48.958;8.284;2023-02-26T07:22:21;22.13;;;8.00;;
162;SDS011;3946;48.958;8.284;2023-02-26T07:25:07;20.03;;;6.70;;
162;SDS011;3946;48.958;8.284;2023-02-26T07:27:53;18.07;;;6.73;;
162;SDS011;3946;48.958;8.284;2023-02-26T07:30:39;24.60;;;7.07;;
162;SDS011;3946;48.958;8.284;2023-02-26T07:33:25;57.70;;;16.60;;
162;SDS011;3946;48.958;8.284;2023-02-26T07:36:12;51.30;;;12.17;;
162;SDS011;3946;48.958;8.284;2023-02-26T07:38:57;199.67;;;47.83;;
162;SDS011;3946;48.958;8.284;2023-02-26T07:41:43;67.63;;;22.37;;
162;SDS011;3946;48.958;8.284;2023-02-26T07:44:32;16.50;;;6.27;;
162;SDS011;3946;48.958;8.284;2023-02-26T07:47:17;118.97;;;33.20;;
162;SDS011;3946;48.958;8.284;2023-02-26T07:50:03;40.97;;;14.93;;
162;SDS011;3946;48.958;8.284;2023-02-26T07:52:51;16.20;;;5.83;;
162;SDS011;3946;48.958;8.284;2023-02-26T07:55:36;17.10;;;7.17;;
162;SDS011;3946;48.958;8.284;2023-02-26T07:58:22;19.50;;;6.50;;
162;SDS011;3946;48.958;8.284;2023-02-26T08:01:07;14.93;;;5.17;;
162;SDS011;3946;48.958;8.284;2023-02-26T08:03:53;18.33;;;5.90;;
162;SDS011;3946;48.958;8.284;2023-02-26T08:06:38;9.63;;;4.87;;
162;SDS011;3946;48.958;8.284;2023-02-26T08:09:25;19.30;;;8.53;;
162;SDS011;3946;48.958;8.284;2023-02-26T08:12:10;31.20;;;10.63;;
162;SDS011;3946;48.958;8.284;2023-02-26T08:14:56;15.43;;;6.40;;
162;SDS011;3946;48.958;8.284;2023-02-26T08:17:41;14.40;;;4.23;;
162;SDS011;3946;48.958;8.284;2023-02-26T08:20:26;11.90;;;4.90;;
162;SDS011;3946;48.958;8.284;2023-02-26T08:23:12;16.37;;;5.60;;
162;SDS011;3946;48.958;8.284;2023-02-26T08:26:02;19.83;;;6.30;;
162;SDS011;3946;48.958;8.284;2023-02-26T08:28:48;15.30;;;5.30;;
162;SDS011;3946;48.958;8.284;2023-02-26T08:31:34;12.73;;;5.20;;
162;SDS011;3946;48.958;8.284;2023-02-26T08:34:19;12.50;;;4.40;;
162;SDS011;3946;48.958;8.284;2023-02-26T08:37:04;11.03;;;4.33;;
162;SDS011;3946;48.958;8.284;2023-02-26T08:39:52;14.47;;;4.50;;
162;SDS011;3946;48.958;8.284;2023-02-26T08:42:38;12.63;;;4.90;;
162;SDS011;3946;48.958;8.284;2023-02-26T08:45:24;15.43;;;6.00;;
162;SDS011;3946;48.958;8.284;2023-02-26T08:48:09;1.40;;;1.10;;
162;SDS011;3946;48.958;8.284;2023-02-26T08:50:54;11.30;;;4.40;;
162;SDS011;3946;48.958;8.284;2023-02-26T08:53:39;7.60;;;2.33;;
162;SDS011;3946;48.958;8.284;2023-02-26T08:56:27;4.57;;;1.23;;
162;SDS011;3946;48.958;8.284;2023-02-26T08:59:14;9.40;;;3.10;;
162;SDS011;3946;48.958;8.284;2023-02-26T09:01:59;8.70;;;3.27;;
162;SDS011;3946;48.958;8.284;2023-02-26T09:04:44;17.80;;;4.37;;
162;SDS011;3946;48.958;8.284;2023-02-26T09:07:30;6.87;;;2.30;;
162;SDS011;3946;48.958;8.284;2023-02-26T09:10:15;8.13;;;3.03;;
162;SDS011;3946;48.958;8.284;2023-02-26T09:13:01;8.67;;;3.13;;
162;SDS011;3946;48.958;8.284;2023-02-26T09:15:48;11.57;;;3.27;;
162;SDS011;3946;48.958;8.284;2023-02-26T09:18:34;7.50;;;2.50;;
162;SDS011;3946;48.958;8.284;2023-02-26T09:21:20;7.80;;;3.47;;
162;SDS011;3946;48.958;8.284;2023-02-26T09:24:05;11.40;;;3.83;;
162;SDS011;3946;48.958;8.284;2023-02-26T09:26:51;19.10;;;7.77;;
162;SDS011;3946;48.958;8.284;2023-02-26T09:29:36;11.77;;;3.57;;
162;SDS011;3946;48.958;8.284;2023-02-26T09:32:23;13.10;;;4.50;;
162;SDS011;3946;48.958;8.284;2023-02-26T09:35:09;11.97;;;3.63;;
162;SDS011;3946;48.958;8.284;2023-02-26T09:37:55;18.93;;;4.10;;
162;SDS011;3946;48.958;8.284;2023-02-26T09:40:42;12.13;;;4.23;;
162;SDS011;3946;48.958;8.284;2023-02-26T09:43:39;16.30;;;3.70;;
162;SDS011;3946;48.958;8.284;2023-02-26T09:46:38;9.00;;;4.10;;
162;SDS011;3946;48.958;8.284;2023-02-26T09:49:31;11.00;;;4.00;;
162;SDS011;3946;48.958;8.284;2023-02-26T09:52:35;10.13;;;3.00;;
162;SDS011;3946;48.958;8.284;2023-02-26T09:55:25;9.00;;;3.00;;
162;SDS011;3946;48.958;8.284;2023-02-26T09:58:14;11.50;;;4.07;;
162;SDS011;3946;48.958;8.284;2023-02-26T10:01:04;6.43;;;3.03;;
162;SDS011;3946;48.958;8.284;2023-02-26T10:03:55;11.97;;;4.57;;
162;SDS011;3946;48.958;8.284;2023-02-26T10:07:00;13.70;;;3.90;;
162;SDS011;3946;48.958;8.284;2023-02-26T10:09:56;9.57;;;4.03;;
162;SDS011;3946;48.958;8.284;2023-02-26T10:12:48;12.13;;;4.80;;
162;SDS011;3946;48.958;8.284;2023-02-26T10:15:36;17.53;;;3.70;;
162;SDS011;3946;48.958;8.284;2023-02-26T10:18:25;11.93;;;3.93;;
162;SDS011;3946;48.958;8.284;2023-02-26T10:21:18;9.40;;;3.30;;
162;SDS011;3946;48.958;8.284;2023-02-26T10:24:11;6.20;;;3.07;;
162;SDS011;3946;48.958;8.284;2023-02-26T10:27:02;7.43;;;3.10;;
162;SDS011;3946;48.958;8.284;2023-02-26T10:29:52;6.90;;;3.17;;
162;SDS011;3946;48.958;8.284;2023-02-26T10:32:45;8.07;;;2.70;;
162;SDS011;3946;48.958;8.284;2023-02-26T10:35:40;8.10;;;4.10;;
162;SDS011;3946;48.958;8.284;2023-02-26T10:38:28;7.10;;;2.93;;
162;SDS011;3946;48.958;8.284;2023-02-26T10:41:19;9.30;;;3.50;;
162;SDS011;3946;48.958;8.284;2023-02-26T10:44:12;10.10;;;3.80;;
162;SDS011;3946;48.958;8.284;2023-02-26T10:47:04;19.23;;;6.93;;
162;SDS011;3946;48.958;8.284;2023-02-26T10:49:58;5.90;;;2.63;;
162;SDS011;3946;48.958;8.284;2023-02-26T10:52:46;11.70;;;4.07;;
162;SDS011;3946;48.958;8.284;2023-02-26T10:55:37;7.83;;;3.27;;
162;SDS011;3946;48.958;8.284;2023-02-26T10:58:28;5.93;;;2.50;;
162;SDS011;3946;48.958;8.284;2023-02-26T11:01:13;9.50;;;2.73;;
162;SDS011;3946;48.958;8.284;2023-02-26T11:04:02;4.57;;;2.30;;
162;SDS011;3946;48.958;8.284;2023-02-26T11:06:51;9.20;;;3.50;;
162;SDS011;3946;48.958;8.284;2023-02-26T11:09:42;6.07;;;2.77;;
162;SDS011;3946;48.958;8.284;2023-02-26T11:12:29;13.97;;;5.20;;
162;SDS011;3946;48.958;8.284;2023-02-26T11:15:18;30.97;;;12.20;;
162;SDS011;3946;48.958;8.284;2023-02-26T11:18:05;14.63;;;6.17;;
162;SDS011;3946;48.958;8.284;2023-02-26T11:20:59;12.97;;;5.20;;
162;SDS011;3946;48.958;8.284;2023-02-26T11:23:45;7.03;;;2.97;;
162;SDS011;3946;48.958;8.284;2023-02-26T11:26:31;6.13;;;2.53;;
162;SDS011;3946;48.958;8.284;2023-02-26T11:29:20;2.70;;;1.67;;
162;SDS011;3946;48.958;8.284;2023-02-26T11:32:12;5.60;;;2.53;;
162;SDS011;3946;48.958;8.284;2023-02-26T11:35:01;17.90;;;8.20;;
162;SDS011;3946;48.958;8.284;2023-02-26T11:37:51;8.50;;;3.90;;
162;SDS011;3946;48.958;8.284;2023-02-26T11:40:39;10.97;;;3.90;;
162;SDS011;3946;48.958;8.284;2023-02-26T11:43:32;11.10;;;4.53;;
162;SDS011;3946;48.958;8.284;2023-02-26T11:46:21;10.43;;;4.53;;
162;SDS011;3946;48.958;8.284;2023-02-26T11:49:09;13.27;;;4.40;;
162;SDS011;3946;48.958;8.284;2023-02-26T11:52:02;28.47;;;11.30;;
162;SDS011;3946;48.958;8.284;2023-02-26T11:55:00;5.20;;;2.73;;
162;SDS011;3946;48.958;8.284;2023-02-26T11:57:49;9.83;;;3.53;;
162;SDS011;3946;48.958;8.284;2023-02-26T12:00:38;10.73;;;3.50;;
162;SDS011;3946;48.958;8.284;2023-02-26T12:03:25;7.10;;;2.13;;
162;SDS011;3946;48.958;8.284;2023-02-26T12:06:15;13.07;;;5.57;;
162;SDS011;3946;48.958;8.284;2023-02-26T12:09:02;9.13;;;3.87;;
162;SDS011;3946;48.958;8.284;2023-02-26T12:12:00;12.40;;;5.23;;
162;SDS011;3946;48.958;8.284;2023-02-26T12:18:19;2.77;;;1.23;;
162;SDS011;3946;48.958;8.284;2023-02-26T12:21:17;11.37;;;3.70;;
162;SDS011;3946;48.958;8.284;2023-02-26T12:24:17;2.60;;;1.10;;
162;SDS011;3946;48.958;8.284;2023-02-26T12:27:19;11.93;;;3.97;;
162;SDS011;3946;48.958;8.284;2023-02-26T12:30:20;3.53;;;1.50;;
162;SDS011;3946;48.958;8.284;2023-02-26T12:33:16;11.77;;;2.20;;
162;SDS011;3946;48.958;8.284;2023-02-26T12:36:17;10.07;;;4.00;;
162;SDS011;3946;48.958;8.284;2023-02-26T12:39:16;10.27;;;4.17;;
162;SDS011;3946;48.958;8.284;2023-02-26T12:42:16;5.77;;;2.93;;
162;SDS011;3946;48.958;8.284;2023-02-26T12:45:14;6.70;;;2.67;;
162;SDS011;3946;48.958;8.284;2023-02-26T12:48:16;5.60;;;2.40;;
162;SDS011;3946;48.958;8.284;2023-02-26T12:51:31;32.07;;;10.70;;
162;SDS011;3946;48.958;8.284;2023-02-26T12:54:33;8.77;;;2.70;;
162;SDS011;3946;48.958;8.284;2023-02-26T13:00:47;13.10;;;5.03;;
162;SDS011;3946;48.958;8.284;2023-02-26T13:03:56;13.70;;;6.20;;
162;SDS011;3946;48.958;8.284;2023-02-26T13:07:09;7.93;;;3.50;;
162;SDS011;3946;48.958;8.284;2023-02-26T13:10:07;8.37;;;3.27;;
162;SDS011;3946;48.958;8.284;2023-02-26T13:13:06;9.30;;;3.70;;
162;SDS011;3946;48.958;8.284;2023-02-26T13:16:14;13.93;;;4.20;;
162;SDS011;3946;48.958;8.284;2023-02-26T13:19:17;6.80;;;2.93;;
162;SDS011;3946;48.958;8.284;2023-02-26T13:22:16;9.23;;;3.90;;
162;SDS011;3946;48.958;8.284;2023-02-26T13:25:05;23.27;;;9.30;;
162;SDS011;3946;48.958;8.284;2023-02-26T13:28:02;6.97;;;2.90;;
162;SDS011;3946;48.958;8.284;2023-02-26T13:30:55;10.87;;;3.67;;
162;SDS011;3946;48.958;8.284;2023-02-26T13:33:42;18.63;;;4.40;;
162;SDS011;3946;48.958;8.284;2023-02-26T13:36:29;1.50;;;1.33;;
162;SDS011;3946;48.958;8.284;2023-02-26T13:39:26;3.97;;;2.07;;
162;SDS011;3946;48.958;8.284;2023-02-26T13:42:24;5.97;;;2.17;;
162;SDS011;3946;48.958;8.284;2023-02-26T13:45:22;2.53;;;1.63;;
162;SDS011;3946;48.958;8.284;2023-02-26T13:48:21;26.77;;;7.23;;
162;SDS011;3946;48.958;8.284;2023-02-26T13:51:23;4.17;;;2.00;;
162;SDS011;3946;48.958;8.284;2023-02-26T13:54:33;15.80;;;3.03;;
162;SDS011;3946;48.958;8.284;2023-02-26T13:57:34;11.20;;;3.47;;
162;SDS011;3946;48.958;8.284;2023-02-26T14:00:27;2.10;;;1.07;;
162;SDS011;3946;48.958;8.284;2023-02-26T14:03:28;1.40;;;0.90;;
162;SDS011;3946;48.958;8.284;2023-02-26T14:06:23;2.67;;;1.10;;
162;SDS011;3946;48.958;8.284;2023-02-26T14:12:44;1.30;;;0.90;;
162;SDS011;3946;48.958;8.284;2023-02-26T14:15:41;1.90;;;1.10;;
162;SDS011;3946;48.958;8.284;2023-02-26T14:18:36;1.57;;;1.00;;
162;SDS011;3946;48.958;8.284;2023-02-26T14:21:37;2.77;;;2.10;;
162;SDS011;3946;48.958;8.284;2023-02-26T14:24:31;2.70;;;1.83;;
162;SDS011;3946;48.958;8.284;2023-02-26T14:27:31;1.40;;;1.00;;
162;SDS011;3946;48.958;8.284;2023-02-26T14:30:24;1.80;;;1.37;;
162;SDS011;3946;48.958;8.284;2023-02-26T14:33:12;2.03;;;1.20;;
162;SDS011;3946;48.958;8.284;2023-02-26T14:36:01;1.60;;;1.20;;
162;SDS011;3946;48.958;8.284;2023-02-26T14:38:49;3.67;;;2.07;;
162;SDS011;3946;48.958;8.284;2023-02-26T14:41:37;6.73;;;1.93;;
162;SDS011;3946;48.958;8.284;2023-02-26T14:44:26;7.07;;;2.33;;
162;SDS011;3946;48.958;8.284;2023-02-26T14:47:14;1.60;;;1.20;;
162;SDS011;3946;48.958;8.284;2023-02-26T14:50:00;2.83;;;1.67;;
162;SDS011;3946;48.958;8.284;2023-02-26T14:56:08;2.07;;;1.43;;
162;SDS011;3946;48.958;8.284;2023-02-26T14:59:03;1.90;;;1.30;;
162;SDS011;3946;48.958;8.284;2023-02-26T15:02:04;1.47;;;1.03;;
162;SDS011;3946;48.958;8.284;2023-02-26T15:05:13;1.30;;;0.80;;
162;SDS011;3946;48.958;8.284;2023-02-26T15:08:13;1.43;;;1.10;;
162;SDS011;3946;48.958;8.284;2023-02-26T15:11:14;1.63;;;1.13;;
162;SDS011;3946;48.958;8.284;2023-02-26T15:14:19;1.30;;;0.80;;
162;SDS011;3946;48.958;8.284;2023-02-26T15:17:32;1.30;;;0.90;;
162;SDS011;3946;48.958;8.284;2023-02-26T15:20:31;1.30;;;0.90;;
162;SDS011;3946;48.958;8.284;2023-02-26T15:23:27;1.30;;;0.80;;
162;SDS011;3946;48.958;8.284;2023-02-26T15:26:22;1.93;;;1.37;;
162;SDS011;3946;48.958;8.284;2023-02-26T15:29:10;1.30;;;0.90;;
162;SDS011;3946;48.958;8.284;2023-02-26T15:31:57;12.37;;;6.87;;
162;SDS011;3946;48.958;8.284;2023-02-26T15:34:47;1.40;;;1.00;;
162;SDS011;3946;48.958;8.284;2023-02-26T15:37:38;1.50;;;0.90;;
162;SDS011;3946;48.958;8.284;2023-02-26T15:40:28;1.30;;;0.87;;
162;SDS011;3946;48.958;8.284;2023-02-26T15:43:18;1.30;;;0.90;;
162;SDS011;3946;48.958;8.284;2023-02-26T15:46:07;1.40;;;0.90;;
162;SDS011;3946;48.958;8.284;2023-02-26T15:48:54;1.30;;;0.80;;
162;SDS011;3946;48.958;8.284;2023-02-26T15:51:44;1.30;;;0.90;;
162;SDS011;3946;48.958;8.284;2023-02-26T15:54:32;2.10;;;1.33;;
162;SDS011;3946;48.958;8.284;2023-02-26T15:57:24;1.73;;;1.07;;
162;SDS011;3946;48.958;8.284;2023-02-26T16:00:14;1.40;;;1.00;;
162;SDS011;3946;48.958;8.284;2023-02-26T16:03:05;2.47;;;1.43;;
162;SDS011;3946;48.958;8.284;2023-02-26T16:05:52;1.93;;;1.20;;
162;SDS011;3946;48.958;8.284;2023-02-26T16:08:39;1.50;;;1.00;;
162;SDS011;3946;48.958;8.284;2023-02-26T16:11:26;1.67;;;1.20;;
162;SDS011;3946;48.958;8.284;2023-02-26T16:14:16;2.27;;;1.40;;
162;SDS011;3946;48.958;8.284;2023-02-26T16:17:05;1.30;;;0.90;;
162;SDS011;3946;48.958;8.284;2023-02-26T16:19:55;3.00;;;1.20;;
162;SDS011;3946;48.958;8.284;2023-02-26T16:22:45;1.50;;;0.90;;
162;SDS011;3946;48.958;8.284;2023-02-26T16:25:35;1.40;;;0.90;;
162;SDS011;3946;48.958;8.284;2023-02-26T16:28:25;1.30;;;1.03;;
162;SDS011;3946;48.958;8.284;2023-02-26T16:31:17;1.50;;;1.00;;
162;SDS011;3946;48.958;8.284;2023-02-26T16:34:07;1.30;;;0.80;;
162;SDS011;3946;48.958;8.284;2023-02-26T16:37:22;1.30;;;0.97;;
162;SDS011;3946;48.958;8.284;2023-02-26T16:40:16;1.50;;;1.10;;
162;SDS011;3946;48.958;8.284;2023-02-26T16:43:04;1.30;;;0.80;;
162;SDS011;3946;48.958;8.284;2023-02-26T16:46:10;3.93;;;1.93;;
162;SDS011;3946;48.958;8.284;2023-02-26T16:48:59;1.60;;;0.90;;
162;SDS011;3946;48.958;8.284;2023-02-26T16:51:47;1.30;;;0.90;;
162;SDS011;3946;48.958;8.284;2023-02-26T16:54:35;2.10;;;1.27;;
162;SDS011;3946;48.958;8.284;2023-02-26T16:57:24;1.40;;;0.90;;
162;SDS011;3946;48.958;8.284;2023-02-26T17:00:17;1.30;;;0.90;;
162;SDS011;3946;48.958;8.284;2023-02-26T17:03:14;1.47;;;1.07;;
162;SDS011;3946;48.958;8.284;2023-02-26T17:06:02;1.30;;;0.90;;
162;SDS011;3946;48.958;8.284;2023-02-26T17:08:54;1.30;;;0.97;;
162;SDS011;3946;48.958;8.284;2023-02-26T17:11:42;2.37;;;1.20;;
162;SDS011;3946;48.958;8.284;2023-02-26T17:14:28;1.40;;;1.17;;
162;SDS011;3946;48.958;8.284;2023-02-26T17:17:21;3.00;;;1.93;;
162;SDS011;3946;48.958;8.284;2023-02-26T17:20:07;13.63;;;1.17;;
162;SDS011;3946;48.958;8.284;2023-02-26T17:22:53;1.30;;;0.90;;
162;SDS011;3946;48.958;8.284;2023-02-26T17:25:40;6.13;;;3.10;;
162;SDS011;3946;48.958;8.284;2023-02-26T17:28:28;4.40;;;2.20;;
162;SDS011;3946;48.958;8.284;2023-02-26T17:31:17;7.63;;;3.40;;
162;SDS011;3946;48.958;8.284;2023-02-26T17:34:08;3.80;;;1.90;;
162;SDS011;3946;48.958;8.284;2023-02-26T17:36:54;2.73;;;2.27;;
162;SDS011;3946;48.958;8.284;2023-02-26T17:39:42;2.47;;;1.50;;
162;SDS011;3946;48.958;8.284;2023-02-26T17:42:28;1.50;;;1.20;;
162;SDS011;3946;48.958;8.284;2023-02-26T17:45:14;5.70;;;2.40;;
162;SDS011;3946;48.958;8.284;2023-02-26T17:47:59;1.30;;;0.90;;
162;SDS011;3946;48.958;8.284;2023-02-26T17:50:47;1.30;;;0.90;;
162;SDS011;3946;48.958;8.284;2023-02-26T17:53:34;1.30;;;0.90;;
162;SDS011;3946;48.958;8.284;2023-02-26T17:56:23;1.30;;;0.90;;
162;SDS011;3946;48.958;8.284;2023-02-26T17:59:11;1.97;;;1.40;;
162;SDS011;3946;48.958;8.284;2023-02-26T18:01:57;2.90;;;1.20;;
162;SDS011;3946;48.958;8.284;2023-02-26T18:04:44;1.40;;;1.10;;
162;SDS011;3946;48.958;8.284;2023-02-26T18:07:31;1.80;;;1.23;;
162;SDS011;3946;48.958;8.284;2023-02-26T18:10:18;1.40;;;1.13;;
162;SDS011;3946;48.958;8.284;2023-02-26T18:13:04;1.30;;;1.00;;
162;SDS011;3946;48.958;8.284;2023-02-26T18:15:52;2.17;;;1.40;;
162;SDS011;3946;48.958;8.284;2023-02-26T18:18:39;2.90;;;1.80;;
162;SDS011;3946;48.958;8.284;2023-02-26T18:21:24;4.33;;;1.60;;
162;SDS011;3946;48.958;8.284;2023-02-26T18:24:12;1.40;;;1.00;;
162;SDS011;3946;48.958;8.284;2023-02-26T18:26:57;2.10;;;1.20;;
162;SDS011;3946;48.958;8.284;2023-02-26T18:29:42;1.40;;;1.00;;
162;SDS011;3946;48.958;8.284;2023-02-26T18:32:28;2.13;;;1.20;;
162;SDS011;3946;48.958;8.284;2023-02-26T18:35:13;1.77;;;1.27;;
162;SDS011;3946;48.958;8.284;2023-02-26T18:38:00;2.50;;;1.67;;
162;SDS011;3946;48.958;8.284;2023-02-26T18:40:48;1.50;;;1.20;;
162;SDS011;3946;48.958;8.284;2023-02-26T18:43:33;1.63;;;1.20;;
162;SDS011;3946;48.958;8.284;2023-02-26T18:46:18;2.43;;;1.43;;
162;SDS011;3946;48.958;8.284;2023-02-26T18:49:04;2.23;;;1.07;;
162;SDS011;3946;48.958;8.284;2023-02-26T18:51:49;1.50;;;1.00;;
162;SDS011;3946;48.958;8.284;2023-02-26T18:54:34;1.40;;;0.90;;
162;SDS011;3946;48.958;8.284;2023-02-26T18:57:22;2.23;;;1.63;;
162;SDS011;3946;48.958;8.284;2023-02-26T19:00:08;3.90;;;1.50;;
162;SDS011;3946;48.958;8.284;2023-02-26T19:02:56;2.37;;;1.40;;
162;SDS011;3946;48.958;8.284;2023-02-26T19:05:41;1.60;;;1.05;;
162;SDS011;3946;48.958;8.284;2023-02-26T19:08:27;1.40;;;1.00;;
162;SDS011;3946;48.958;8.284;2023-02-26T19:11:12;1.60;;;1.00;;
162;SDS011;3946;48.958;8.284;2023-02-26T19:13:59;1.40;;;0.90;;
162;SDS011;3946;48.958;8.284;2023-02-26T19:16:44;2.03;;;1.57;;
162;SDS011;3946;48.958;8.284;2023-02-26T19:19:30;2.17;;;1.60;;
162;SDS011;3946;48.958;8.284;2023-02-26T19:22:15;3.00;;;1.57;;
162;SDS011;3946;48.958;8.284;2023-02-26T19:25:00;17.10;;;7.40;;
162;SDS011;3946;48.958;8.284;2023-02-26T19:27:46;49.00;;;17.60;;
162;SDS011;3946;48.958;8.284;2023-02-26T19:30:32;26.73;;;11.17;;
162;SDS011;3946;48.958;8.284;2023-02-26T19:33:21;45.67;;;15.20;;